Time;durP1;ratioP1;P1;durP2;ratioP2;P2;SDS_P1;SDS_P2;PMS_P1;PMS_P2;Temp;Humidity;BMP_temperature;BMP_pressure;BME280_temperature;BME280_humidity;BME280_pressure;Samples;Min_cycle;Max_cycle;Signal;HPM_P1;HPM_P2
2022/09/21 00:03:56;;;;;;;;;;;;;;;12.31;100.00;100700.56;10542586;28;19924;-70
2022/09/21 00:09:02;;;;;;;;;;;;;;;12.28;100.00;100700.59;10541707;28;19964;-71
2022/09/21 00:14:09;;;;;;;;;;;;;;;12.28;100.00;100701.47;10541688;28;19967;-71
2022/09/21 00:19:12;;;;;;;;;;;;;;;12.21;100.00;100701.53;10548351;28;19977;-69
2022/09/21 00:24:15;;;;;;;;;;;;;;;12.28;100.00;100700.59;10549075;28;19930;-70
2022/09/21 00:29:19;;;;;;;;;;;;;;;12.28;100.00;100698.00;10538346;28;20019;-70
2022/09/21 00:34:23;;;;;;;;;;;;;;;12.30;100.00;100701.44;10509811;28;20015;-68
2022/09/21 00:39:27;;;;;;;;;;;;;;;12.30;100.00;100699.72;10506627;28;20241;-68
2022/09/21 00:44:32;;;;;;;;;;;;;;;12.31;100.00;100711.84;10506318;28;20019;-69
2022/09/21 00:49:36;;;;;;;;;;;;;;;12.39;100.00;100706.56;10506492;28;19924;-74
2022/09/21 00:54:42;;;;;;;;;;;;;;;12.41;100.00;100712.56;10505888;28;20027;-70
2022/09/21 00:59:47;;;;;;;;;;;;;;;12.33;100.00;100704.88;10505935;28;20276;-70
2022/09/21 01:04:52;;;;;;;;;;;;;;;12.37;100.00;100708.31;10505713;28;19961;-70
2022/09/21 01:09:57;;;;;;;;;;;;;;;12.41;100.00;100712.56;10505535;28;19966;-73
2022/09/21 01:15:11;;;;;;;;;;;;;;;12.43;100.00;100703.88;10504958;28;19981;-69
2022/09/21 01:20:34;;;;;;;;;;;;;;;12.34;100.00;100710.91;10504995;28;19925;-71
2022/09/21 01:25:41;;;;;;;;;;;;;;;12.38;100.00;100717.81;10504600;28;19924;-71
2022/09/21 01:30:48;;;;;;;;;;;;;;;12.42;100.00;100725.59;10503712;28;20011;-70
2022/09/21 01:35:55;;;;;;;;;;;;;;;12.43;100.00;100726.44;10504452;28;20019;-70
2022/09/21 01:41:00;;;;;;;;;;;;;;;12.46;100.00;100729.88;10504721;28;19935;-70
2022/09/21 01:46:07;;;;;;;;;;;;;;;12.47;100.00;100723.81;10504537;28;19924;-71
2022/09/21 01:51:13;;;;;;;;;;;;;;;12.48;100.00;100732.44;10503816;28;20336;-70
2022/09/21 01:56:19;;;;;;;;;;;;;;;12.48;100.00;100735.94;10503673;28;20023;-72
2022/09/21 02:01:25;;;;;;;;;;;;;;;12.48;100.00;100735.94;10503856;28;20015;-73
2022/09/21 02:06:30;;;;;;;;;;;;;;;12.50;100.00;100741.09;10503250;28;19930;-71
2022/09/21 02:11:32;;;;;;;;;;;;;;;12.46;100.00;100740.28;10504649;28;19930;-70
2022/09/21 02:16:39;;;;;;;;;;;;;;;12.47;100.00;100749.84;10502513;28;20367;-71
2022/09/21 02:21:49;;;;;;;;;;;;;;;12.49;100.00;100744.59;10503175;28;19930;-72
2022/09/21 02:26:55;;;;;;;;;;;;;;;12.46;100.00;100742.00;10502326;28;20019;-70
2022/09/21 02:32:04;;;;;;;;;;;;;;;12.42;100.00;100741.22;10502803;28;19928;-70
2022/09/21 02:37:12;;;;;;;;;;;;;;;12.46;100.00;100739.41;10502408;28;19924;-71
2022/09/21 02:42:17;;;;;;;;;;;;;;;12.47;100.00;100742.03;10502172;28;20037;-69
2022/09/21 02:47:22;;;;;;;;;;;;;;;12.39;100.00;100750.81;10501599;28;19928;-73
2022/09/21 02:52:26;;;;;;;;;;;;;;;12.39;100.00;100751.63;10180981;28;10000406;-69
2022/09/21 02:57:29;;;;;;;;;;;;;;;12.47;100.00;100761.97;10540381;28;20363;-70
2022/09/21 03:02:38;;;;;;;;;;;;;;;12.41;100.00;100757.69;10539891;28;19934;-69
2022/09/21 03:07:41;;;;;;;;;;;;;;;12.43;100.00;100766.34;10537578;28;20275;-69
2022/09/21 03:12:44;;;;;;;;;;;;;;;12.46;100.00;100765.44;10537152;28;20260;-71
2022/09/21 03:17:49;;;;;;;;;;;;;;;12.41;100.00;100764.63;10542801;28;19927;-69
2022/09/21 03:22:52;;;;;;;;;;;;;;;12.46;100.00;100765.44;10543559;28;19928;-72
2022/09/21 03:27:55;;;;;;;;;;;;;;;12.47;100.00;100772.41;10542689;28;19936;-69
2022/09/21 03:33:00;;;;;;;;;;;;;;;12.39;100.00;100776.84;10542633;28;19924;-72
2022/09/21 03:38:05;;;;;;;;;;;;;;;12.33;100.00;100767.34;10274504;28;10000845;-70
2022/09/21 03:43:08;;;;;;;;;;;;;;;12.32;100.00;100773.41;10537680;28;19928;-70
2022/09/21 03:48:14;;;;;;;;;;;;;;;12.41;100.00;100775.06;10536987;28;19924;-71
2022/09/21 03:53:17;;;;;;;;;;;;;;;12.49;100.00;100781.91;10525128;28;19935;-72
2022/09/21 03:58:21;;;;;;;;;;;;;;;12.45;100.00;100782.81;10544229;28;19938;-72
2022/09/21 04:03:25;;;;;;;;;;;;;;;12.55;100.00;100783.56;10543704;28;19994;-71
2022/09/21 04:08:28;;;;;;;;;;;;;;;12.47;100.00;100788.88;10543640;28;19924;-71
2022/09/21 04:13:31;;;;;;;;;;;;;;;12.46;100.00;100788.88;10543217;28;19924;-74
2022/09/21 04:18:36;;;;;;;;;;;;;;;12.50;100.00;100791.44;10573230;28;19923;-72
2022/09/21 04:23:40;;;;;;;;;;;;;;;12.58;100.00;100793.97;10570168;28;20344;-73
2022/09/21 04:28:43;;;;;;;;;;;;;;;12.62;100.00;100798.25;10542314;28;19932;-72
2022/09/21 04:33:49;;;;;;;;;;;;;;;12.65;100.00;100796.47;10501576;28;19943;-77
2022/09/21 04:38:54;;;;;;;;;;;;;;;12.64;100.00;100809.50;10514566;28;20340;-72
2022/09/21 04:43:57;;;;;;;;;;;;;;;12.64;100.00;100810.38;10541872;28;20019;-72
2022/09/21 04:49:01;;;;;;;;;;;;;;;12.71;100.00;100811.16;10542342;28;19939;-73
2022/09/21 04:54:05;;;;;;;;;;;;;;;12.70;100.00;100814.66;10541211;28;19928;-72
2022/09/21 04:59:08;;;;;;;;;;;;;;;12.70;100.00;100820.72;10541262;28;20031;-72
2022/09/21 05:04:12;;;;;;;;;;;;;;;12.71;100.00;100819.88;10536162;28;19930;-73
2022/09/21 05:14:39;;;;;;;;;;;;;;;12.70;100.00;100833.75;10532648;28;19924;-72
2022/09/21 05:19:44;;;;;;;;;;;;;;;12.77;100.00;100827.59;10543357;28;19928;-72
2022/09/21 05:24:47;;;;;;;;;;;;;;;12.81;100.00;100838.84;10537853;28;19924;-74
2022/09/21 05:29:51;;;;;;;;;;;;;;;12.86;100.00;100844.00;10537228;28;19932;-74
2022/09/21 05:35:01;;;;;;;;;;;;;;;12.88;100.00;100844.81;10521660;28;19971;-73
2022/09/21 05:40:05;;;;;;;;;;;;;;;12.91;100.00;100855.25;10539127;28;20024;-74
2022/09/21 05:45:12;;;;;;;;;;;;;;;12.97;100.00;100860.38;10538474;28;19924;-71
2022/09/21 05:50:25;;;;;;;;;;;;;;;12.98;100.00;100860.34;10536998;28;19958;-74
2022/09/21 05:55:32;;;;;;;;;;;;;;;13.00;100.00;100860.31;10534866;28;19932;-71
2022/09/21 06:00:41;;;;;;;;;;;;;;;13.02;100.00;100864.69;10496803;28;19928;-72
2022/09/21 06:05:45;;;;;;;;;;;;;;;12.97;100.00;100869.06;10503826;28;20006;-71
2022/09/21 06:10:48;;;;;;;;;;;;;;;13.01;100.00;100867.28;10517702;28;19929;-72
2022/09/21 06:15:51;;;;;;;;;;;;;;;13.12;100.00;100871.50;10528934;28;19946;-70
2022/09/21 06:20:56;;;;;;;;;;;;;;;13.21;100.00;100871.38;10496714;28;19924;-75
2022/09/21 06:25:59;;;;;;;;;;;;;;;13.11;100.00;100872.38;10496406;28;20015;-74
2022/09/21 06:31:02;;;;;;;;;;;;;;;13.16;100.00;100874.94;10496395;28;19928;-72
2022/09/21 06:36:07;;;;;;;;;;;;;;;13.10;100.00;100882.84;10501396;28;20325;-75
2022/09/21 06:41:10;;;;;;;;;;;;;;;13.18;100.00;100896.63;10537507;28;20026;-74
2022/09/21 06:46:13;;;;;;;;;;;;;;;13.19;100.00;100896.59;10532042;28;20020;-74
2022/09/21 06:51:19;;;;;;;;;;;;;;;13.22;100.00;100891.34;10497336;28;19936;-71
2022/09/21 06:56:22;;;;;;;;;;;;;;;13.31;100.00;100888.63;10503426;28;20035;-74
2022/09/21 07:01:25;;;;;;;;;;;;;;;13.41;100.00;100894.56;10537872;28;20341;-72
2022/09/21 07:06:30;;;;;;;;;;;;;;;13.53;100.00;100905.72;10530740;28;19979;-74
2022/09/21 07:11:33;;;;;;;;;;;;;;;13.50;100.00;100904.91;10503015;28;19924;-72
2022/09/21 07:16:36;;;;;;;;;;;;;;;13.56;100.00;100900.47;10532879;28;19955;-75
2022/09/21 07:21:40;;;;;;;;;;;;;;;13.63;100.00;100898.66;10542636;28;20061;-72
2022/09/21 07:26:43;;;;;;;;;;;;;;;13.75;100.00;100904.53;10192447;28;10000626;-71
2022/09/21 07:31:46;;;;;;;;;;;;;;;13.76;100.00;100901.06;10545017;28;20256;-74
2022/09/21 07:36:51;;;;;;;;;;;;;;;13.84;100.00;100912.25;10544568;28;19928;-74
2022/09/21 07:41:54;;;;;;;;;;;;;;;13.94;100.00;100921.66;10544358;28;19938;-70
2022/09/21 07:46:57;;;;;;;;;;;;;;;13.93;100.00;100916.47;10543525;28;19924;-66
2022/09/21 07:52:02;;;;;;;;;;;;;;;13.87;100.00;100916.56;10544735;28;19938;-73
2022/09/21 08:02:30;;;;;;;;;;;;;;;13.93;100.00;100919.94;10544429;28;20424;-72
2022/09/21 08:07:35;;;;;;;;;;;;;;;14.05;100.00;100918.88;10543217;28;20068;-71
2022/09/21 08:12:38;;;;;;;;;;;;;;;14.16;100.00;100921.34;10543552;28;19938;-72
2022/09/21 08:17:41;;;;;;;;;;;;;;;14.13;100.00;100930.09;10520271;28;20039;-72
2022/09/21 08:22:46;;;;;;;;;;;;;;;14.08;99.13;100931.03;10542884;28;20019;-71
2022/09/21 08:27:49;;;;;;;;;;;;;;;14.16;98.65;100937.00;10505681;28;20633;-70
2022/09/21 08:32:53;;;;;;;;;;;;;;;14.15;98.72;100935.28;10500906;28;20023;-70
2022/09/21 08:37:58;;;;;;;;;;;;;;;14.27;99.13;100937.75;10536359;28;19939;-71
2022/09/21 08:43:03;;;;;;;;;;;;;;;14.36;98.93;100935.81;10544363;28;19924;-70
2022/09/21 08:48:11;;;;;;;;;;;;;;;14.28;98.95;100950.75;10507926;28;19970;-72
2022/09/21 08:53:19;;;;;;;;;;;;;;;14.35;99.31;100947.16;10500421;28;19928;-70
2022/09/21 08:58:23;;;;;;;;;;;;;;;14.42;98.33;100942.72;10563115;28;19931;-72
2022/09/21 09:03:33;;;;;;;;;;;;;;;14.71;97.55;100948.28;10584072;28;20249;-66
2022/09/21 09:08:51;;;;;;;;;;;;;;;14.80;95.52;100945.53;10506461;28;19932;-69
2022/09/21 09:14:02;;;;;;;;;;;;;;;14.79;96.08;100949.00;10499553;28;20011;-71
2022/09/21 09:19:11;;;;;;;;;;;;;;;14.77;92.54;100942.97;10540608;28;20029;-70
2022/09/21 09:24:17;;;;;;;;;;;;;;;14.93;91.35;100945.28;10540584;28;19928;-76
2022/09/21 09:29:24;;;;;;;;;;;;;;;15.02;90.61;100946.84;10498754;28;19938;-77
2022/09/21 09:34:31;;;;;;;;;;;;;;;15.10;91.08;100942.34;10498731;28;20359;-77
2022/09/21 09:39:35;;;;;;;;;;;;;;;15.08;90.39;100942.38;10497803;28;19939;-75
2022/09/21 09:44:46;;;;;;;;;;;;;;;15.04;90.09;100942.47;10497814;28;19928;-75
2022/09/21 09:49:56;;;;;;;;;;;;;;;15.20;90.38;100938.69;10497450;28;19928;-75
2022/09/21 09:55:01;;;;;;;;;;;;;;;15.54;87.84;100931.03;10498649;28;19924;-78
2022/09/21 10:00:08;;;;;;;;;;;;;;;15.77;86.87;100929.63;10578940;28;20321;-73
2022/09/21 10:05:19;;;;;;;;;;;;;;;15.81;86.34;100935.66;10578598;28;20018;-73
2022/09/21 10:10:27;;;;;;;;;;;;;;;15.76;86.38;100925.28;10538514;28;19924;-70
2022/09/21 10:15:30;;;;;;;;;;;;;;;15.68;85.79;100931.59;10537858;28;19931;-72
2022/09/21 10:20:33;;;;;;;;;;;;;;;15.85;86.74;100927.72;10540102;28;20511;-67
2022/09/21 10:25:37;;;;;;;;;;;;;;;15.73;88.22;100927.13;10540031;28;21131;-66
2022/09/21 10:30:42;;;;;;;;;;;;;;;15.56;89.54;100945.81;10538504;28;19927;-66
2022/09/21 10:35:49;;;;;;;;;;;;;;;15.04;100.00;100964.25;10536475;28;20027;-72
2022/09/21 10:40:54;;;;;;;;;;;;;;;14.66;100.00;100953.63;10495779;28;19929;-70
2022/09/21 10:45:57;;;;;;;;;;;;;;;14.65;100.00;100949.25;10498100;28;19943;-72
2022/09/21 10:51:01;;;;;;;;;;;;;;;15.11;100.00;100945.81;10535838;28;19932;-73
2022/09/21 10:56:06;;;;;;;;;;;;;;;15.43;100.00;100949.56;10532418;28;19989;-74
2022/09/21 11:01:21;;;;;;;;;;;;;;;15.23;100.00;100942.97;10533256;28;19924;-72
2022/09/21 11:06:27;;;;;;;;;;;;;;;15.20;100.00;100946.53;10515587;28;19981;-71
2022/09/21 11:11:38;;;;;;;;;;;;;;;15.29;100.00;100941.09;10542017;28;20321;-69
2022/09/21 11:16:46;;;;;;;;;;;;;;;15.79;100.00;100942.69;10536312;28;19971;-72
2022/09/21 11:21:54;;;;;;;;;;;;;;;16.87;100.00;100923.47;10536700;28;20425;-72
2022/09/21 11:27:03;;;;;;;;;;;;;;;17.28;100.00;100916.16;10541170;28;20023;-73
2022/09/21 11:32:11;;;;;;;;;;;;;;;17.25;100.00;100926.75;10541097;28;19984;-72
2022/09/21 11:37:20;;;;;;;;;;;;;;;16.92;100.00;100922.44;10184453;28;10000015;-71
2022/09/21 11:42:35;;;;;;;;;;;;;;;16.70;100.00;100913.44;10527561;28;19928;-73
2022/09/21 11:47:47;;;;;;;;;;;;;;;17.07;100.00;100910.66;10529146;28;19932;-73
2022/09/21 11:52:56;;;;;;;;;;;;;;;18.27;93.18;100901.72;10529415;28;19928;-72
2022/09/21 11:58:09;;;;;;;;;;;;;;;19.15;89.29;100901.34;10528142;28;19924;-74
2022/09/21 12:03:27;;;;;;;;;;;;;;;19.28;85.35;100902.59;10536874;28;19925;-74
2022/09/21 12:08:38;;;;;;;;;;;;;;;19.58;79.67;100904.13;10527268;28;20256;-73
2022/09/21 12:13:49;;;;;;;;;;;;;;;19.88;79.42;100888.91;10504171;28;19954;-75
2022/09/21 12:18:56;;;;;;;;;;;;;;;19.91;74.57;100879.09;10508269;28;20027;-73
2022/09/21 12:24:03;;;;;;;;;;;;;;;19.51;75.55;100884.19;10533346;28;19931;-75
2022/09/21 12:29:11;;;;;;;;;;;;;;;19.29;75.75;100878.00;10548139;28;19927;-72
2022/09/21 12:34:17;;;;;;;;;;;;;;;19.71;72.77;100865.84;10547781;28;19924;-75
2022/09/21 12:39:23;;;;;;;;;;;;;;;20.04;72.30;100861.00;10194645;28;10000075;-72
2022/09/21 12:44:32;;;;;;;;;;;;;;;19.83;69.60;100857.44;10540056;28;20403;-69
2022/09/21 12:49:39;;;;;;;;;;;;;;;20.54;66.07;100859.78;10524044;28;19925;-69
2022/09/21 12:54:45;;;;;;;;;;;;;;;20.61;64.55;100846.25;10527424;28;19929;-71
2022/09/21 12:59:59;;;;;;;;;;;;;;;20.07;62.91;100856.44;10528390;28;20364;-69
2022/09/21 13:05:08;;;;;;;;;;;;;;;19.50;64.81;100850.84;10541283;28;20018;-70
2022/09/21 13:10:16;;;;;;;;;;;;;;;19.11;65.04;100857.59;10540513;28;20299;-70
2022/09/21 13:15:26;;;;;;;;;;;;;;;18.82;66.29;100863.94;10540866;28;19963;-71
2022/09/21 13:20:37;;;;;;;;;;;;;;;18.54;64.89;100863.19;10520034;28;20606;-68
2022/09/21 13:25:40;;;;;;;;;;;;;;;18.05;64.33;100871.81;10498603;28;19928;-70
2022/09/21 13:30:46;;;;;;;;;;;;;;;17.66;65.72;100880.94;10520096;28;19928;-69
2022/09/21 13:36:00;;;;;;;;;;;;;;;18.01;64.29;100885.09;10539411;28;19963;-70
2022/09/21 13:41:04;;;;;;;;;;;;;;;17.99;63.71;100886.91;10538602;28;20272;-70
2022/09/21 13:46:30;;;;;;;;;;;;;;;17.95;64.56;100882.66;10538768;28;20355;-70
2022/09/21 13:51:35;;;;;;;;;;;;;;;17.85;64.85;100879.47;10524020;28;19935;-69
2022/09/21 13:56:38;;;;;;;;;;;;;;;17.69;65.52;100878.22;10539930;28;20363;-72
2022/09/21 14:01:41;;;;;;;;;;;;;;;17.71;65.38;100881.66;10513536;28;19975;-69
2022/09/21 14:06:53;;;;;;;;;;;;;;;17.55;66.24;100871.69;10497458;28;19933;-70
2022/09/21 14:11:57;;;;;;;;;;;;;;;17.33;67.44;100863.53;10500367;28;19928;-69
2022/09/21 14:17:02;;;;;;;;;;;;;;;17.17;68.18;100870.16;10496232;28;19968;-73
2022/09/21 14:22:25;;;;;;;;;;;;;;;17.05;67.38;100879.22;10496765;28;19975;-70
2022/09/21 14:27:32;;;;;;;;;;;;;;;17.04;67.51;100885.38;10496727;28;19925;-70
2022/09/21 14:32:42;;;;;;;;;;;;;;;16.86;68.71;100883.25;10535804;28;20408;-69
2022/09/21 14:37:48;;;;;;;;;;;;;;;16.72;69.90;100882.75;10541304;28;20015;-70
2022/09/21 14:42:54;;;;;;;;;;;;;;;16.61;71.64;100873.47;10512289;28;19995;-71
2022/09/21 14:48:05;;;;;;;;;;;;;;;16.57;73.22;100879.69;10501775;28;20318;-71
2022/09/21 14:53:26;;;;;;;;;;;;;;;16.50;74.10;100879.00;10533394;28;19923;-74
2022/09/21 14:58:37;;;;;;;;;;;;;;;16.49;75.83;100881.66;10543590;28;19935;-71
2022/09/21 15:03:54;;;;;;;;;;;;;;;16.42;77.33;100880.94;10542895;28;20015;-72
2022/09/21 15:14:33;;;;;;;;;;;;;;;16.31;78.42;100884.72;10542019;28;19924;-74
2022/09/21 15:19:37;;;;;;;;;;;;;;;16.39;78.22;100888.00;10542529;28;19924;-71
2022/09/21 15:24:49;;;;;;;;;;;;;;;16.34;77.54;100889.88;10542473;28;20367;-74
2022/09/21 15:29:54;;;;;;;;;;;;;;;16.23;77.21;100891.91;10542375;28;20466;-73
2022/09/21 15:35:00;;;;;;;;;;;;;;;16.19;77.73;100897.22;10543262;28;19924;-66
2022/09/21 15:40:05;;;;;;;;;;;;;;;16.09;78.13;100897.47;10542324;28;19924;-67
2022/09/21 15:45:16;;;;;;;;;;;;;;;15.99;78.67;100901.22;10542199;28;19963;-66
2022/09/21 15:50:19;;;;;;;;;;;;;;;15.93;78.70;100911.81;10548596;28;19924;-68
2022/09/21 15:55:23;;;;;;;;;;;;;;;15.90;78.89;100917.13;10543739;28;20011;-72
2022/09/21 16:00:30;;;;;;;;;;;;;;;15.74;79.08;100916.59;10549525;28;19924;-72
2022/09/21 16:05:41;;;;;;;;;;;;;;;15.67;80.41;100932.50;10518122;28;19932;-72
2022/09/21 16:10:45;;;;;;;;;;;;;;;15.52;82.14;100938.91;10507744;28;19946;-73
2022/09/21 16:16:01;;;;;;;;;;;;;;;15.32;83.04;100946.28;10507080;28;19924;-70
2022/09/21 16:21:08;;;;;;;;;;;;;;;15.22;84.70;100943.88;10530054;28;20329;-72
2022/09/21 16:26:18;;;;;;;;;;;;;;;15.22;85.76;100947.31;10548811;28;19981;-69
2022/09/21 16:31:39;;;;;;;;;;;;;;;15.06;90.34;100953.75;10547861;28;19950;-71
2022/09/21 16:36:45;;;;;;;;;;;;;;;15.02;89.43;100952.94;10549121;28;20066;-77
2022/09/21 16:41:53;;;;;;;;;;;;;;;14.99;88.29;100950.41;10548972;28;20015;-73
2022/09/21 16:46:58;;;;;;;;;;;;;;;15.01;86.66;100960.84;10548506;28;20003;-75
2022/09/21 16:52:03;;;;;;;;;;;;;;;14.95;85.31;100958.31;10547860;28;19959;-72
2022/09/21 16:57:06;;;;;;;;;;;;;;;14.88;84.76;100959.31;10547457;28;20003;-75
2022/09/21 17:02:12;;;;;;;;;;;;;;;14.81;83.91;100961.19;10547291;28;20007;-74
2022/09/21 17:07:17;;;;;;;;;;;;;;;14.80;83.94;100976.88;10547663;28;19928;-74
2022/09/21 17:12:21;;;;;;;;;;;;;;;14.73;84.02;100970.03;10547387;28;20305;-73
2022/09/21 17:17:25;;;;;;;;;;;;;;;14.72;84.34;100971.78;10548021;28;20252;-74
2022/09/21 17:22:30;;;;;;;;;;;;;;;14.70;84.15;100972.72;10547216;28;19924;-76
2022/09/21 17:27:33;;;;;;;;;;;;;;;14.72;84.50;100976.16;10546689;28;20003;-73
2022/09/21 17:32:36;;;;;;;;;;;;;;;14.60;84.80;100987.66;10546458;28;19981;-74
2022/09/21 17:37:42;;;;;;;;;;;;;;;14.49;85.54;100999.19;10546259;28;20062;-73
2022/09/21 17:42:47;;;;;;;;;;;;;;;14.45;86.10;101000.09;10546173;28;19949;-71
2022/09/21 17:47:50;;;;;;;;;;;;;;;14.41;86.71;101007.13;10546059;28;19971;-73
2022/09/21 17:58:25;;;;;;;;;;;;;;;14.27;88.75;100998.63;10512602;28;19983;-73
2022/09/21 18:03:30;;;;;;;;;;;;;;;14.27;89.08;101006.47;10503151;28;19924;-74
2022/09/21 18:08:35;;;;;;;;;;;;;;;14.26;89.67;101006.50;10539439;28;20011;-74
2022/09/21 18:13:46;;;;;;;;;;;;;;;14.21;90.54;101010.88;10544652;28;19924;-74
2022/09/21 18:18:55;;;;;;;;;;;;;;;14.19;90.94;101010.91;10544607;28;20334;-73
2022/09/21 18:24:12;;;;;;;;;;;;;;;14.15;91.91;101019.66;10544511;28;19924;-71
2022/09/21 18:29:25;;;;;;;;;;;;;;;14.12;92.94;101026.69;10543631;28;19931;-73
2022/09/21 18:34:56;;;;;;;;;;;;;;;14.09;96.67;101018.91;10502147;28;19928;-76
2022/09/21 18:40:08;;;;;;;;;;;;;;;14.09;96.68;101019.78;10502077;28;20055;-75
2022/09/21 18:45:14;;;;;;;;;;;;;;;14.14;96.12;101024.91;10501849;28;19933;-74
2022/09/21 18:50:21;;;;;;;;;;;;;;;14.10;95.75;101025.84;10502225;28;20015;-74
2022/09/21 18:55:26;;;;;;;;;;;;;;;14.01;96.01;101026.84;10501603;28;20329;-71
2022/09/21 19:00:33;;;;;;;;;;;;;;;13.99;96.01;101027.75;10502051;28;19964;-73
2022/09/21 19:05:37;;;;;;;;;;;;;;;13.97;96.12;101025.16;10502578;28;19932;-76
2022/09/21 19:10:44;;;;;;;;;;;;;;;13.92;97.20;101024.34;10180085;28;10000489;-75
2022/09/21 19:15:54;;;;;;;;;;;;;;;13.89;97.38;101025.25;10536993;28;20265;-74
2022/09/21 19:21:13;;;;;;;;;;;;;;;13.89;98.14;101032.22;10540555;28;20019;-74
2022/09/21 19:26:21;;;;;;;;;;;;;;;13.85;99.05;101031.41;10550887;28;19924;-73
2022/09/21 19:31:25;;;;;;;;;;;;;;;13.83;98.90;101027.94;10544254;28;19924;-73
2022/09/21 19:36:29;;;;;;;;;;;;;;;13.79;99.15;101031.47;10550246;28;19928;-72
2022/09/21 19:41:39;;;;;;;;;;;;;;;13.79;99.50;101030.59;10541887;28;19928;-73
2022/09/21 19:46:46;;;;;;;;;;;;;;;13.76;100.00;101025.41;10550278;28;19928;-73
2022/09/21 19:51:50;;;;;;;;;;;;;;;13.76;99.92;101031.50;10545459;28;19946;-72
2022/09/21 20:02:18;;;;;;;;;;;;;;;13.75;100.00;101029.75;10552511;28;20014;-71
2022/09/21 20:07:26;;;;;;;;;;;;;;;13.73;100.00;101020.25;10555276;28;20003;-73
2022/09/21 20:12:34;;;;;;;;;;;;;;;13.74;100.00;101028.06;10555994;28;20019;-73
2022/09/21 20:17:42;;;;;;;;;;;;;;;13.78;100.00;101026.28;10555567;28;20006;-74
2022/09/21 20:22:45;;;;;;;;;;;;;;;13.74;100.00;101029.78;10535272;28;20022;-69
2022/09/21 20:27:50;;;;;;;;;;;;;;;13.65;100.00;101027.31;10556172;28;20367;-72
2022/09/21 20:32:55;;;;;;;;;;;;;;;13.65;100.00;101029.94;10552499;28;19969;-71
2022/09/21 20:37:58;;;;;;;;;;;;;;;13.63;100.00;101029.06;10549363;28;19924;-73
2022/09/21 20:43:06;;;;;;;;;;;;;;;13.57;100.00;101034.34;10549239;28;19935;-74
2022/09/21 20:48:15;;;;;;;;;;;;;;;13.58;100.00;101023.88;10548101;28;19990;-72
2022/09/21 20:53:19;;;;;;;;;;;;;;;13.50;100.00;101024.84;10548502;28;19942;-70
2022/09/21 20:58:23;;;;;;;;;;;;;;;13.53;100.00;101024.84;10514986;28;19924;-71
2022/09/21 21:03:26;;;;;;;;;;;;;;;13.43;100.00;101021.47;10505980;28;19973;-72
2022/09/21 21:08:29;;;;;;;;;;;;;;;13.46;100.00;101018.81;10505637;28;19979;-70
2022/09/21 21:13:34;;;;;;;;;;;;;;;13.39;100.00;101022.38;10505205;28;19935;-74
2022/09/21 21:18:38;;;;;;;;;;;;;;;13.40;100.00;101021.50;10505130;28;19964;-72
2022/09/21 21:29:03;;;;;;;;;;;;;;;13.25;100.00;101029.50;10504983;28;19925;-71
2022/09/21 21:34:06;;;;;;;;;;;;;;;13.16;100.00;101029.59;10504476;28;20402;-72
2022/09/21 21:39:10;;;;;;;;;;;;;;;13.19;100.00;101029.53;10504439;28;20008;-72
2022/09/21 21:44:15;;;;;;;;;;;;;;;13.18;100.00;101037.38;10502536;28;19928;-71
2022/09/21 21:49:17;;;;;;;;;;;;;;;13.13;100.00;101032.19;10529239;28;20019;-74
2022/09/21 21:54:22;;;;;;;;;;;;;;;13.18;100.00;101030.44;10545959;28;19924;-75
2022/09/21 21:59:26;;;;;;;;;;;;;;;13.21;100.00;101033.00;10537599;28;20005;-74
2022/09/21 22:04:29;;;;;;;;;;;;;;;13.18;100.00;101024.34;10545500;28;19931;-74
2022/09/21 22:09:32;;;;;;;;;;;;;;;13.12;100.00;101029.59;10545603;28;19924;-72
2022/09/21 22:14:36;;;;;;;;;;;;;;;12.93;100.00;101036.72;10545144;28;19946;-70
2022/09/21 22:19:39;;;;;;;;;;;;;;;12.78;100.00;101042.94;10190950;28;10000599;-69
2022/09/21 22:24:42;;;;;;;;;;;;;;;12.68;100.00;101040.41;10540386;28;19955;-68
2022/09/21 22:29:47;;;;;;;;;;;;;;;12.74;100.00;101037.75;10540355;28;20018;-69
2022/09/21 22:34:50;;;;;;;;;;;;;;;12.67;100.00;101039.53;10538097;28;19930;-68
2022/09/21 22:39:53;;;;;;;;;;;;;;;12.65;100.00;101041.28;10538072;28;20033;-67
2022/09/21 22:44:57;;;;;;;;;;;;;;;12.66;100.00;101036.94;10537694;28;19988;-67
2022/09/21 22:50:00;;;;;;;;;;;;;;;12.65;100.00;101038.66;10537534;28;19928;-67
2022/09/21 22:55:03;;;;;;;;;;;;;;;12.71;100.00;101041.25;10537035;28;19928;-68
2022/09/21 23:00:08;;;;;;;;;;;;;;;12.61;100.00;101043.94;10537874;28;20030;-71
2022/09/21 23:05:11;;;;;;;;;;;;;;;12.71;100.00;101041.25;10189532;28;10000620;-68
2022/09/21 23:10:14;;;;;;;;;;;;;;;12.69;100.00;101037.78;10538753;28;20275;-72
2022/09/21 23:15:19;;;;;;;;;;;;;;;12.71;100.00;101040.38;10538550;28;19934;-71
2022/09/21 23:20:22;;;;;;;;;;;;;;;12.66;100.00;101042.16;10537379;28;20028;-72
2022/09/21 23:25:25;;;;;;;;;;;;;;;12.68;100.00;101045.63;10185865;28;9999679;-73
2022/09/21 23:30:30;;;;;;;;;;;;;;;12.56;100.00;101043.94;10536739;28;20014;-72
2022/09/21 23:35:33;;;;;;;;;;;;;;;12.33;100.00;101043.25;10537375;28;20019;-71
2022/09/21 23:40:36;;;;;;;;;;;;;;;12.51;100.00;101042.28;10540664;28;20015;-70
2022/09/21 23:45:42;;;;;;;;;;;;;;;12.50;100.00;101043.13;10220730;28;10000110;-75
2022/09/21 23:50:45;;;;;;;;;;;;;;;12.43;100.00;101042.31;10578318;28;20023;-74
2022/09/21 23:55:48;;;;;;;;;;;;;;;12.43;100.00;101038.84;10580690;28;19934;-74
